Time;durP1;ratioP1;P1;durP2;ratioP2;P2;SDS_P1;SDS_P2;PMS_P1;PMS_P2;Temp;Humidity;BMP_temperature;BMP_pressure;BME280_temperature;BME280_humidity;BME280_pressure;Samples;Min_cycle;Max_cycle;Signal;HPM_P1;HPM_P2
2021/12/13 00:00:33;;;;;;;26.65;6.30;;;10.40;99.90;;;;;;5039743;28;20129;-71
2021/12/13 00:03:06;;;;;;;25.02;5.72;;;10.40;99.90;;;;;;5034321;28;20049;-71
2021/12/13 00:05:43;;;;;;;10.82;4.50;;;10.40;99.90;;;;;;5035537;28;20038;-72
2021/12/13 00:08:12;;;;;;;14.77;5.20;;;10.40;99.90;;;;;;5037930;28;20052;-71
2021/12/13 00:10:43;;;;;;;15.32;5.35;;;10.40;99.90;;;;;;5036686;28;20026;-71
2021/12/13 00:13:15;;;;;;;12.43;4.88;;;10.30;99.90;;;;;;5038380;28;20033;-71
2021/12/13 00:15:57;;;;;;;19.88;5.43;;;10.30;99.90;;;;;;5036882;28;20035;-69
2021/12/13 00:18:35;;;;;;;13.63;5.25;;;10.40;99.90;;;;;;5032496;28;20036;-70
2021/12/13 00:21:27;;;;;;;18.80;5.72;;;10.30;99.90;;;;;;5035980;28;20037;-71
2021/12/13 00:24:04;;;;;;;13.85;5.88;;;10.30;99.90;;;;;;5027841;28;20030;-71
2021/12/13 00:26:44;;;;;;;17.73;4.93;;;10.30;99.90;;;;;;5034292;28;20026;-70
2021/12/13 00:29:30;;;;;;;16.23;4.83;;;10.30;99.90;;;;;;5037993;28;20508;-71
2021/12/13 00:32:03;;;;;;;12.98;3.88;;;10.30;99.90;;;;;;5030786;28;20364;-71
2021/12/13 00:34:52;;;;;;;17.52;5.00;;;10.20;99.90;;;;;;5039046;28;20029;-70
2021/12/13 00:37:38;;;;;;;10.35;4.63;;;10.30;99.90;;;;;;5037812;28;20037;-71
2021/12/13 00:40:13;;;;;;;13.88;4.18;;;10.30;99.90;;;;;;5033460;28;20036;-71
2021/12/13 00:43:07;;;;;;;11.93;3.42;;;10.20;99.90;;;;;;5041194;28;20682;-71
2021/12/13 00:45:37;;;;;;;15.57;3.63;;;10.20;99.90;;;;;;5041220;28;20056;-70
2021/12/13 00:48:04;;;;;;;10.55;3.13;;;10.20;99.90;;;;;;5041836;28;20131;-72
2021/12/13 00:50:33;;;;;;;10.20;3.75;;;10.20;99.90;;;;;;5042317;28;20037;-71
2021/12/13 00:52:59;;;;;;;11.55;4.10;;;10.20;99.90;;;;;;5040776;28;20357;-70
2021/12/13 00:55:29;;;;;;;14.77;4.90;;;10.20;99.90;;;;;;5043035;28;20392;-70
2021/12/13 00:58:03;;;;;;;9.90;3.50;;;10.20;99.90;;;;;;5040040;28;20060;-71
2021/12/13 01:00:38;;;;;;;9.68;3.00;;;10.10;99.90;;;;;;5042476;28;20778;-68
2021/12/13 01:03:09;;;;;;;8.60;2.60;;;10.10;99.90;;;;;;5041515;28;20128;-71
2021/12/13 01:05:40;;;;;;;12.48;3.60;;;10.10;99.90;;;;;;5040265;28;20036;-71
2021/12/13 01:08:31;;;;;;;10.15;3.30;;;10.10;99.90;;;;;;5040614;28;20037;-71
2021/12/13 01:11:09;;;;;;;5.90;2.35;;;10.10;99.90;;;;;;5038070;28;20774;-71
2021/12/13 01:13:34;;;;;;;10.60;3.03;;;10.10;99.90;;;;;;5041686;28;20098;-70
2021/12/13 01:16:34;;;;;;;6.05;2.50;;;10.10;99.90;;;;;;5040989;28;20069;-72
2021/12/13 01:19:27;;;;;;;5.45;2.63;;;10.00;99.90;;;;;;5037529;28;20037;-71
2021/12/13 01:27:41;;;;;;;6.38;2.10;;;10.00;99.90;;;;;;5035946;28;20029;-69
2021/12/13 01:30:18;;;;;;;11.80;2.75;;;10.00;99.90;;;;;;5040683;28;20053;-71
2021/12/13 01:32:49;;;;;;;9.35;2.60;;;10.00;99.90;;;;;;5039695;28;20057;-71
2021/12/13 01:35:20;;;;;;;13.00;2.67;;;10.00;99.90;;;;;;5036300;28;20503;-70
2021/12/13 01:37:53;;;;;;;14.30;2.83;;;10.00;99.90;;;;;;5038657;28;20036;-71
2021/12/13 01:40:24;;;;;;;7.10;2.25;;;9.90;99.90;;;;;;5036473;28;20132;-71
2021/12/13 01:43:19;;;;;;;8.90;2.75;;;9.90;99.90;;;;;;5035377;28;20091;-70
2021/12/13 01:45:48;;;;;;;8.88;2.08;;;9.90;99.90;;;;;;5039440;28;20120;-71
2021/12/13 01:48:26;;;;;;;5.45;1.88;;;9.90;99.90;;;;;;5042541;28;20118;-71
2021/12/13 01:51:04;;;;;;;8.57;2.15;;;9.90;99.90;;;;;;5035572;28;20033;-69
2021/12/13 01:53:55;;;;;;;5.70;2.10;;;9.90;99.90;;;;;;5040059;28;20029;-71
2021/12/13 01:59:40;;;;;;;3.45;1.60;;;9.90;99.90;;;;;;5035237;28;20083;-70
2021/12/13 02:02:15;;;;;;;5.07;1.80;;;9.90;99.90;;;;;;5039984;28;20109;-70
2021/12/13 02:04:42;;;;;;;5.30;1.73;;;9.90;99.90;;;;;;5038579;28;20029;-70
2021/12/13 02:07:09;;;;;;;3.28;1.30;;;9.90;99.90;;;;;;5038259;28;20447;-71
2021/12/13 02:09:44;;;;;;;4.97;1.95;;;9.90;99.90;;;;;;5040972;28;20034;-70
2021/12/13 02:12:14;;;;;;;6.70;1.60;;;9.90;99.90;;;;;;5039287;28;20038;-72
2021/12/13 02:16:55;;;;;;;5.63;1.73;;;9.90;99.90;;;;;;5039874;28;20440;-71
2021/12/13 02:17:36;;;;;;;6.88;1.60;;;9.80;99.90;;;;;;5040023;28;20025;-72
2021/12/13 02:20:14;;;;;;;4.18;1.80;;;9.90;99.90;;;;;;5040168;28;20037;-71
2021/12/13 02:22:48;;;;;;;7.93;2.40;;;9.90;99.90;;;;;;5042353;28;20409;-72
2021/12/13 02:25:52;;;;;;;6.90;2.05;;;9.90;99.90;;;;;;5035049;28;20136;-70
2021/12/13 02:28:21;;;;;;;7.18;2.50;;;9.90;99.90;;;;;;5032442;28;20041;-71
2021/12/13 02:30:56;;;;;;;4.97;2.28;;;9.90;99.90;;;;;;5041573;28;20098;-70
2021/12/13 02:33:30;;;;;;;8.95;2.67;;;9.90;99.90;;;;;;5039592;28;20033;-71
2021/12/13 02:36:09;;;;;;;6.10;2.50;;;9.90;99.90;;;;;;5039687;28;20029;-70
2021/12/13 02:38:37;;;;;;;8.82;3.05;;;9.90;99.90;;;;;;5039170;28;20041;-71
2021/12/13 02:41:05;;;;;;;7.95;3.30;;;9.90;99.90;;;;;;5039296;28;20500;-71
2021/12/13 02:43:35;;;;;;;13.15;4.20;;;9.80;99.90;;;;;;5039915;28;20051;-71
2021/12/13 02:46:02;;;;;;;17.02;3.95;;;9.80;99.90;;;;;;5041286;28;20045;-70
2021/12/13 02:48:40;;;;;;;13.40;4.38;;;9.80;99.90;;;;;;5038225;28;20036;-71
2021/12/13 02:51:41;;;;;;;13.13;4.53;;;9.80;99.90;;;;;;5040954;28;20032;-72
2021/12/13 02:54:21;;;;;;;12.38;4.75;;;9.80;99.90;;;;;;5028497;28;20049;-72
2021/12/13 02:57:00;;;;;;;12.05;5.18;;;9.90;99.90;;;;;;5033602;28;20055;-69
2021/12/13 02:59:30;;;;;;;11.32;4.45;;;9.80;99.90;;;;;;5039275;28;20040;-70
2021/12/13 03:02:00;;;;;;;13.68;4.68;;;9.80;99.90;;;;;;5038078;28;20032;-70
2021/12/13 03:04:27;;;;;;;13.88;5.50;;;9.80;99.90;;;;;;5039115;28;20033;-72
2021/12/13 03:07:01;;;;;;;12.23;5.13;;;9.80;99.90;;;;;;5039446;28;20029;-72
2021/12/13 03:09:30;;;;;;;9.95;4.70;;;9.80;99.90;;;;;;5038634;28;20103;-71
2021/12/13 03:11:57;;;;;;;11.52;5.30;;;9.80;99.90;;;;;;5038139;28;20392;-70
2021/12/13 03:14:29;;;;;;;10.65;5.47;;;9.90;99.90;;;;;;5038745;28;20091;-71
2021/12/13 03:17:04;;;;;;;15.95;5.90;;;9.80;99.90;;;;;;5039274;28;20033;-70
2021/12/13 03:19:30;;;;;;;17.65;6.50;;;9.80;99.90;;;;;;5038136;28;20037;-69
2021/12/13 03:22:16;;;;;;;13.95;5.95;;;9.80;99.90;;;;;;5040487;28;20064;-72
2021/12/13 03:25:09;;;;;;;13.13;6.38;;;9.80;99.90;;;;;;5031175;28;20029;-71
2021/12/13 03:27:55;;;;;;;15.13;5.97;;;9.80;99.90;;;;;;5039306;28;20044;-72
2021/12/13 03:30:28;;;;;;;13.05;6.50;;;9.80;99.90;;;;;;5035509;28;20041;-70
2021/12/13 03:33:09;;;;;;;11.30;5.50;;;9.80;99.90;;;;;;5038633;28;20433;-71
2021/12/13 03:35:53;;;;;;;16.48;6.22;;;9.80;99.90;;;;;;5038299;28;20033;-71
2021/12/13 03:38:30;;;;;;;12.52;6.05;;;9.90;99.90;;;;;;5035551;28;20029;-72
2021/12/13 03:41:06;;;;;;;13.27;6.00;;;9.90;99.90;;;;;;5036942;28;20114;-71
2021/12/13 03:43:42;;;;;;;14.55;6.22;;;9.90;99.90;;;;;;5039512;28;20036;-71
2021/12/13 03:46:10;;;;;;;10.95;6.03;;;9.90;99.90;;;;;;5034808;28;20025;-71
2021/12/13 03:48:38;;;;;;;12.02;5.60;;;9.90;99.90;;;;;;5036771;28;20038;-71
2021/12/13 03:51:10;;;;;;;14.32;6.28;;;9.90;99.90;;;;;;5039183;28;20025;-72
2021/12/13 03:53:37;;;;;;;12.75;5.90;;;9.90;99.90;;;;;;5033729;28;20109;-70
2021/12/13 03:56:12;;;;;;;11.02;5.30;;;9.90;99.90;;;;;;5039311;28;20488;-71
2021/12/13 03:58:44;;;;;;;11.20;5.82;;;9.90;99.90;;;;;;5030116;28;20037;-70
2021/12/13 04:01:36;;;;;;;11.80;5.50;;;9.90;99.90;;;;;;5032281;28;20118;-71
2021/12/13 04:04:06;;;;;;;15.15;5.70;;;9.80;99.90;;;;;;5037596;28;20123;-70
2021/12/13 04:06:32;;;;;;;9.88;5.38;;;9.90;99.90;;;;;;5037725;28;20443;-70
2021/12/13 04:08:59;;;;;;;9.95;5.68;;;9.90;99.90;;;;;;5037598;28;20037;-70
2021/12/13 04:11:27;;;;;;;12.63;5.03;;;9.90;99.90;;;;;;5038564;28;20400;-70
2021/12/13 04:14:08;;;;;;;12.52;6.32;;;9.90;99.90;;;;;;5038873;28;20033;-70
2021/12/13 04:16:49;;;;;;;10.52;5.65;;;9.90;99.90;;;;;;5040309;28;20033;-70
2021/12/13 04:19:19;;;;;;;;;;;9.90;99.90;;;;;;5037796;28;20037;-71
2021/12/13 04:21:55;;;;;;;11.05;5.25;;;9.90;99.90;;;;;;5047059;28;20291;-71
2021/12/13 04:24:33;;;;;;;10.35;4.97;;;9.90;99.90;;;;;;5041964;28;20031;-69
2021/12/13 04:27:04;;;;;;;9.15;4.85;;;9.90;99.90;;;;;;5040470;28;20099;-70
2021/12/13 04:29:35;;;;;;;11.45;5.63;;;9.90;99.90;;;;;;5042934;28;20474;-72
2021/12/13 04:32:15;;;;;;;10.88;5.63;;;9.90;99.90;;;;;;5035125;28;20037;-72
2021/12/13 04:34:42;;;;;;;8.83;4.30;;;9.90;99.90;;;;;;5037144;28;20231;-70
2021/12/13 04:37:13;;;;;;;11.98;5.60;;;9.90;99.90;;;;;;5039002;28;20036;-70
2021/12/13 04:39:41;;;;;;;9.80;4.85;;;9.90;99.90;;;;;;5040032;28;20030;-72
2021/12/13 04:42:16;;;;;;;8.20;4.80;;;9.90;99.90;;;;;;5040788;28;20025;-72
2021/12/13 04:44:50;;;;;;;8.63;5.38;;;9.90;99.90;;;;;;5037686;28;20048;-70
2021/12/13 04:47:25;;;;;;;9.50;4.85;;;9.80;99.90;;;;;;5043296;28;20378;-71
2021/12/13 04:50:13;;;;;;;10.38;5.47;;;9.80;99.90;;;;;;5041968;28;20029;-69
2021/12/13 04:52:40;;;;;;;12.38;6.00;;;9.80;99.90;;;;;;5036402;28;20041;-72
2021/12/13 04:55:11;;;;;;;12.18;5.47;;;9.80;99.90;;;;;;5044807;28;20090;-73
2021/12/13 04:57:38;;;;;;;10.88;5.40;;;9.90;99.90;;;;;;5036585;28;20103;-74
2021/12/13 05:00:10;;;;;;;10.70;5.32;;;9.90;99.90;;;;;;5034721;28;20041;-70
2021/12/13 05:02:39;;;;;;;10.07;4.85;;;9.80;99.90;;;;;;5036726;28;20037;-70
2021/12/13 05:05:05;;;;;;;14.55;5.57;;;9.90;99.90;;;;;;5036855;28;20036;-70
2021/12/13 05:07:31;;;;;;;12.82;6.10;;;9.90;99.90;;;;;;5043278;28;20506;-71
2021/12/13 05:09:58;;;;;;;14.50;5.70;;;9.80;99.90;;;;;;5040259;28;20037;-70
2021/12/13 05:12:28;;;;;;;12.32;5.20;;;9.80;99.90;;;;;;5044055;28;20040;-71
2021/12/13 05:14:58;;;;;;;9.77;4.75;;;9.80;99.90;;;;;;5042588;28;20030;-68
2021/12/13 05:17:33;;;;;;;13.13;5.60;;;9.80;99.90;;;;;;5039323;28;20426;-71
2021/12/13 05:20:21;;;;;;;11.63;4.88;;;9.80;99.90;;;;;;5043079;28;20045;-70
2021/12/13 05:22:47;;;;;;;10.40;5.45;;;9.80;99.90;;;;;;5041190;28;20538;-67
2021/12/13 05:25:28;;;;;;;9.48;4.57;;;9.80;99.90;;;;;;5040743;28;20132;-72
2021/12/13 05:28:10;;;;;;;10.52;4.72;;;9.80;99.90;;;;;;5039568;28;20037;-69
2021/12/13 05:30:48;;;;;;;14.25;5.60;;;9.90;99.90;;;;;;5036066;28;20541;-71
2021/12/13 05:33:17;;;;;;;12.02;5.10;;;9.80;99.90;;;;;;5030429;28;20112;-71
2021/12/13 05:35:47;;;;;;;14.80;5.18;;;9.80;99.90;;;;;;5036906;28;20029;-70
2021/12/13 05:38:34;;;;;;;11.93;5.35;;;9.80;99.90;;;;;;5030725;28;20056;-71
2021/12/13 05:41:05;;;;;;;8.65;4.85;;;9.80;99.90;;;;;;5032523;28;20094;-69
2021/12/13 05:43:45;;;;;;;9.32;4.78;;;9.80;99.90;;;;;;5028917;28;20480;-71
2021/12/13 05:46:14;;;;;;;9.87;5.33;;;9.90;99.90;;;;;;5038345;28;20022;-71
2021/12/13 05:48:42;;;;;;;13.40;6.07;;;9.80;99.90;;;;;;5034743;28;20547;-71
2021/12/13 05:51:19;;;;;;;9.27;5.47;;;9.80;99.90;;;;;;5034513;28;20492;-72
2021/12/13 05:53:46;;;;;;;9.73;4.75;;;9.80;99.90;;;;;;5041271;28;20085;-70
2021/12/13 05:56:21;;;;;;;16.83;4.90;;;9.80;99.90;;;;;;5038310;28;20112;-68
2021/12/13 05:58:52;;;;;;;13.15;5.63;;;9.80;99.90;;;;;;5040351;28;20041;-67
2021/12/13 06:01:41;;;;;;;16.08;5.90;;;9.90;99.90;;;;;;5041662;28;20053;-72
2021/12/13 06:04:06;;;;;;;12.20;5.40;;;9.80;99.90;;;;;;5026985;28;20061;-71
2021/12/13 06:06:53;;;;;;;12.20;5.22;;;9.80;99.90;;;;;;5032459;28;20113;-71
2021/12/13 06:09:39;;;;;;;12.50;5.47;;;9.90;99.90;;;;;;5030343;28;20045;-72
2021/12/13 06:12:08;;;;;;;12.30;5.85;;;9.80;99.90;;;;;;5035065;28;20067;-71
2021/12/13 06:14:35;;;;;;;14.10;5.57;;;9.80;99.90;;;;;;5029731;28;20040;-71
2021/12/13 06:17:03;;;;;;;11.32;5.28;;;9.80;99.90;;;;;;5030624;28;20052;-71
2021/12/13 06:19:53;;;;;;;12.55;6.20;;;9.80;99.90;;;;;;5031897;28;20052;-70
2021/12/13 06:22:23;;;;;;;12.23;5.83;;;9.80;99.90;;;;;;5027185;28;20025;-70
2021/12/13 06:24:56;;;;;;;11.15;5.60;;;9.80;99.90;;;;;;5026860;28;20516;-69
2021/12/13 06:27:29;;;;;;;13.38;6.20;;;9.90;99.90;;;;;;5031391;28;20056;-70
2021/12/13 06:30:19;;;;;;;10.73;5.72;;;9.80;99.90;;;;;;5028461;28;20493;-71
2021/12/13 06:33:09;;;;;;;10.07;4.90;;;9.80;99.90;;;;;;5028497;28;20048;-71
2021/12/13 06:35:40;;;;;;;7.88;3.85;;;9.80;99.90;;;;;;5026361;28;20037;-71
2021/12/13 06:38:40;;;;;;;12.10;6.22;;;9.90;99.90;;;;;;5026534;28;20530;-70
2021/12/13 06:41:38;;;;;;;13.40;5.67;;;9.90;99.90;;;;;;5027120;28;20029;-70
2021/12/13 06:44:07;;;;;;;11.85;6.05;;;9.90;99.90;;;;;;5015837;28;20273;-71
2021/12/13 06:46:38;;;;;;;9.75;5.07;;;9.80;99.90;;;;;;5028099;28;20064;-70
2021/12/13 06:49:48;;;;;;;13.38;6.00;;;9.80;99.90;;;;;;5026519;28;20087;-70
2021/12/13 06:52:13;;;;;;;13.23;5.32;;;9.80;99.90;;;;;;5008020;28;20038;-71
2021/12/13 06:54:48;;;;;;;14.52;6.68;;;9.80;99.90;;;;;;5029081;28;20038;-71
2021/12/13 06:57:31;;;;;;;15.75;5.90;;;9.80;99.90;;;;;;5027984;28;20049;-70
2021/12/13 07:00:10;;;;;;;14.52;5.90;;;9.80;99.90;;;;;;5025631;28;20090;-70
2021/12/13 07:02:38;;;;;;;13.25;6.00;;;9.80;99.90;;;;;;5027866;28;20077;-71
2021/12/13 07:05:04;;;;;;;16.80;6.10;;;9.70;99.90;;;;;;5030003;28;20118;-72
2021/12/13 07:07:35;;;;;;;12.85;5.93;;;9.80;99.90;;;;;;5028780;28;20041;-70
2021/12/13 07:10:12;;;;;;;10.82;5.80;;;9.80;99.90;;;;;;5024563;28;20045;-70
2021/12/13 07:12:45;;;;;;;13.52;6.53;;;9.80;99.90;;;;;;5028380;28;20075;-70
2021/12/13 07:15:45;;;;;;;12.82;5.80;;;9.80;99.90;;;;;;5028945;28;20036;-71
2021/12/13 07:18:13;;;;;;;16.13;6.30;;;9.80;99.90;;;;;;4998593;28;20122;-71
2021/12/13 07:20:45;;;;;;;14.52;6.75;;;9.80;99.90;;;;;;5027294;28;20040;-71
2021/12/13 07:23:10;;;;;;;14.02;5.65;;;9.80;99.90;;;;;;5026209;28;20401;-72
2021/12/13 07:25:39;;;;;;;15.75;6.78;;;9.80;99.90;;;;;;5028097;28;20033;-70
2021/12/13 07:28:08;;;;;;;14.93;6.80;;;9.90;99.90;;;;;;5025588;28;20040;-72
2021/12/13 07:30:36;;;;;;;15.55;6.63;;;9.80;99.90;;;;;;5027882;28;20037;-70
2021/12/13 07:33:07;;;;;;;14.45;7.30;;;9.90;99.90;;;;;;5028817;28;20253;-70
2021/12/13 07:35:55;;;;;;;14.85;6.97;;;9.80;99.90;;;;;;5027388;28;20157;-72
2021/12/13 07:38:25;;;;;;;14.55;6.68;;;9.80;99.90;;;;;;5022370;28;20038;-70
2021/12/13 07:40:55;;;;;;;13.80;7.25;;;9.80;99.90;;;;;;5027057;28;20033;-69
2021/12/13 07:43:22;;;;;;;16.02;7.20;;;9.70;99.90;;;;;;5030468;28;20053;-71
2021/12/13 07:45:57;;;;;;;24.60;8.55;;;9.80;99.90;;;;;;5025154;28;20037;-70
2021/12/13 07:48:29;;;;;;;17.20;7.72;;;9.80;99.90;;;;;;5026256;28;20857;-70
2021/12/13 07:51:06;;;;;;;19.45;7.95;;;9.80;99.90;;;;;;5024256;28;20033;-69
2021/12/13 07:53:54;;;;;;;20.42;8.38;;;9.80;99.90;;;;;;5025066;28;20127;-71
2021/12/13 07:56:36;;;;;;;15.43;7.47;;;9.80;99.90;;;;;;5024143;28;20073;-67
2021/12/13 07:59:26;;;;;;;17.50;7.60;;;9.80;99.90;;;;;;5023257;28;20041;-70
2021/12/13 08:01:59;;;;;;;18.88;8.25;;;9.80;99.90;;;;;;5028521;28;20037;-71
2021/12/13 08:04:29;;;;;;;16.63;7.85;;;9.80;99.90;;;;;;5029287;28;20649;-70
2021/12/13 08:06:58;;;;;;;17.75;7.43;;;9.80;99.90;;;;;;5024773;28;20037;-71
2021/12/13 08:09:28;;;;;;;18.90;7.43;;;9.80;99.90;;;;;;5023669;28;20048;-71
2021/12/13 08:12:18;;;;;;;22.10;8.65;;;9.80;99.90;;;;;;5025103;28;20734;-70
2021/12/13 08:14:45;;;;;;;17.65;7.32;;;9.80;99.90;;;;;;5028022;28;20084;-70
2021/12/13 08:17:25;;;;;;;23.38;8.32;;;9.80;99.90;;;;;;5027514;28;20039;-70
2021/12/13 08:20:14;;;;;;;18.70;8.50;;;9.80;99.90;;;;;;5025821;28;20044;-70
2021/12/13 08:22:46;;;;;;;17.95;8.32;;;9.80;99.90;;;;;;5031381;28;20029;-69
2021/12/13 08:25:20;;;;;;;18.75;7.13;;;9.80;99.90;;;;;;5031093;28;20042;-69
2021/12/13 08:27:55;;;;;;;19.38;8.20;;;9.80;99.90;;;;;;5030396;28;20044;-69
2021/12/13 08:30:29;;;;;;;19.65;8.43;;;9.80;99.90;;;;;;5026363;28;20044;-71
2021/12/13 08:33:15;;;;;;;16.25;7.43;;;9.90;99.90;;;;;;5024873;28;20034;-70
2021/12/13 08:36:07;;;;;;;16.88;8.00;;;9.80;99.90;;;;;;5024202;28;20061;-69
2021/12/13 08:38:41;;;;;;;18.83;7.18;;;9.80;99.90;;;;;;5027116;28;20041;-71
2021/12/13 08:41:24;;;;;;;16.10;7.07;;;9.80;99.90;;;;;;5027670;28;20662;-70
2021/12/13 08:44:01;;;;;;;16.95;7.43;;;9.80;99.90;;;;;;5025592;28;20021;-69
2021/12/13 08:46:55;;;;;;;18.48;7.45;;;9.80;99.90;;;;;;5025838;28;20029;-71
2021/12/13 08:49:29;;;;;;;17.83;7.20;;;9.90;99.90;;;;;;5015347;28;20062;-70
2021/12/13 08:52:31;;;;;;;17.85;7.05;;;9.90;99.90;;;;;;5028723;28;20128;-72
2021/12/13 08:55:00;;;;;;;18.98;6.80;;;9.90;99.90;;;;;;5004289;28;20039;-69
2021/12/13 08:57:48;;;;;;;23.30;6.95;;;9.90;99.90;;;;;;5023246;28;20041;-71
2021/12/13 09:00:18;;;;;;;16.02;6.63;;;9.90;99.90;;;;;;5028999;28;20461;-70
2021/12/13 09:02:52;;;;;;;14.82;6.60;;;9.90;99.90;;;;;;5032873;28;20121;-67
2021/12/13 09:05:32;;;;;;;18.63;7.22;;;9.90;99.90;;;;;;5030183;28;20037;-70
2021/12/13 09:08:01;;;;;;;;;;;9.90;99.90;;;;;;5022845;28;20037;-68
2021/12/13 09:10:41;;;;;;;15.32;6.32;;;9.90;99.90;;;;;;5030773;28;19932;-70
2021/12/13 09:13:08;;;;;;;17.70;7.72;;;10.00;99.90;;;;;;5028515;28;20132;-70
2021/12/13 09:15:35;;;;;;;17.75;6.75;;;10.00;99.90;;;;;;5033615;28;20048;-70
2021/12/13 09:18:02;;;;;;;14.25;6.35;;;10.00;99.90;;;;;;5031970;28;20120;-68
2021/12/13 09:20:38;;;;;;;16.98;7.15;;;10.00;99.90;;;;;;5032838;28;20508;-70
2021/12/13 09:23:24;;;;;;;15.95;6.57;;;10.10;99.90;;;;;;5032212;28;20389;-70
2021/12/13 09:25:54;;;;;;;13.70;5.97;;;10.10;99.90;;;;;;5024238;28;20404;-70
2021/12/13 09:28:27;;;;;;;14.48;5.95;;;10.10;99.90;;;;;;5028430;28;20029;-69
2021/12/13 09:31:20;;;;;;;13.95;6.65;;;10.10;99.90;;;;;;5032548;28;20037;-71
2021/12/13 09:33:53;;;;;;;13.98;6.05;;;10.20;99.90;;;;;;5025436;28;20049;-69
2021/12/13 09:36:31;;;;;;;15.82;6.15;;;10.20;99.90;;;;;;5026363;28;20057;-70
2021/12/13 09:39:02;;;;;;;17.25;6.43;;;10.20;99.90;;;;;;5029510;28;20037;-70
2021/12/13 09:41:33;;;;;;;13.05;6.15;;;10.20;99.90;;;;;;5024340;28;20386;-70
2021/12/13 09:44:07;;;;;;;17.48;6.25;;;10.20;99.90;;;;;;5026926;28;20046;-70
2021/12/13 09:47:06;;;;;;;15.63;6.43;;;10.20;99.90;;;;;;5029735;28;20128;-70
2021/12/13 09:49:38;;;;;;;14.32;6.03;;;10.30;99.90;;;;;;5027107;28;20037;-69
2021/12/13 09:52:06;;;;;;;12.85;6.07;;;10.30;99.90;;;;;;5030843;28;20582;-71
2021/12/13 09:54:38;;;;;;;19.15;6.13;;;10.30;99.90;;;;;;5027705;28;20040;-69
2021/12/13 09:57:10;;;;;;;14.30;6.22;;;10.30;99.90;;;;;;5030732;28;20040;-70
2021/12/13 09:59:43;;;;;;;14.50;6.28;;;10.30;99.90;;;;;;5033122;28;20496;-69
2021/12/13 10:02:17;;;;;;;14.20;6.20;;;10.30;99.90;;;;;;5031781;28;20029;-69
2021/12/13 10:04:44;;;;;;;14.95;6.55;;;10.40;99.90;;;;;;5029143;28;20059;-69
2021/12/13 10:07:19;;;;;;;15.48;6.03;;;10.40;99.90;;;;;;5032152;28;20033;-69
2021/12/13 10:09:49;;;;;;;13.57;5.50;;;10.50;99.90;;;;;;5027828;28;20036;-69
2021/12/13 10:12:39;;;;;;;11.88;6.07;;;10.50;99.90;;;;;;5032994;28;20029;-70
2021/12/13 10:15:10;;;;;;;14.52;6.03;;;10.50;99.90;;;;;;5026566;28;20032;-70
2021/12/13 10:17:39;;;;;;;15.02;5.70;;;10.50;99.90;;;;;;5030491;28;20156;-71
2021/12/13 10:20:12;;;;;;;12.70;5.32;;;10.50;99.90;;;;;;5024360;28;20517;-68
2021/12/13 10:22:38;;;;;;;13.88;5.25;;;10.50;99.90;;;;;;5034016;28;20078;-71
2021/12/13 10:25:19;;;;;;;14.45;6.30;;;10.50;99.90;;;;;;5030397;28;20041;-71
2021/12/13 10:27:46;;;;;;;15.88;5.70;;;10.50;99.90;;;;;;5025517;28;20033;-70
2021/12/13 10:30:19;;;;;;;14.85;5.38;;;10.50;99.90;;;;;;5029948;28;20037;-72
2021/12/13 10:32:45;;;;;;;12.63;5.50;;;10.50;99.90;;;;;;5024229;28;20073;-67
2021/12/13 10:35:21;;;;;;;13.25;5.15;;;10.60;99.90;;;;;;5029942;28;20036;-69
2021/12/13 10:37:56;;;;;;;16.73;5.47;;;10.60;99.90;;;;;;5029508;28;20041;-67
2021/12/13 10:40:46;;;;;;;13.50;6.10;;;10.60;99.90;;;;;;5033701;28;20407;-70
2021/12/13 10:43:16;;;;;;;16.08;5.45;;;10.70;99.90;;;;;;5034314;28;20034;-70
2021/12/13 10:46:11;;;;;;;14.55;4.53;;;10.70;99.90;;;;;;5040441;28;20039;-69
2021/12/13 10:48:44;;;;;;;11.15;5.30;;;10.70;99.90;;;;;;5026883;28;20042;-70
2021/12/13 10:51:23;;;;;;;19.30;5.40;;;10.70;99.90;;;;;;5039906;28;20029;-71
2021/12/13 10:53:51;;;;;;;11.50;5.13;;;10.80;99.90;;;;;;5031974;28;20033;-69
2021/12/13 10:56:21;;;;;;;14.63;5.35;;;10.80;99.90;;;;;;5042488;28;20025;-69
2021/12/13 10:58:54;;;;;;;19.35;5.88;;;10.80;99.90;;;;;;5033536;28;20079;-68
2021/12/13 11:01:27;;;;;;;17.48;5.15;;;10.80;99.90;;;;;;5033480;28;20026;-70
2021/12/13 11:03:54;;;;;;;13.88;4.78;;;10.80;99.90;;;;;;5023337;28;20030;-70
2021/12/13 11:06:21;;;;;;;14.02;4.80;;;10.80;99.90;;;;;;5026355;28;20063;-70
2021/12/13 11:08:49;;;;;;;14.00;4.45;;;10.80;99.90;;;;;;5025760;28;20032;-68
2021/12/13 11:11:28;;;;;;;13.75;4.60;;;10.70;99.90;;;;;;5030468;28;20033;-69
2021/12/13 11:13:58;;;;;;;11.27;5.40;;;10.80;99.90;;;;;;5023729;28;20088;-69
2021/12/13 11:16:31;;;;;;;11.83;5.47;;;10.80;99.90;;;;;;5024530;28;20025;-71
2021/12/13 11:18:57;;;;;;;16.42;5.45;;;10.80;99.90;;;;;;5024781;28;20022;-68
2021/12/13 11:21:45;;;;;;;13.27;5.57;;;10.70;99.90;;;;;;5028948;28;20553;-71
2021/12/13 11:24:18;;;;;;;15.43;5.40;;;10.80;99.90;;;;;;5026022;28;20402;-69
2021/12/13 11:26:46;;;;;;;11.70;5.03;;;10.80;99.90;;;;;;5023341;28;20052;-71
2021/12/13 11:29:14;;;;;;;15.45;4.85;;;10.90;99.90;;;;;;5024340;28;20033;-69
2021/12/13 11:31:52;;;;;;;10.35;4.43;;;10.80;99.90;;;;;;5035389;28;20048;-72
2021/12/13 11:34:58;;;;;;;10.50;4.70;;;10.80;99.90;;;;;;5032115;28;20045;-70
2021/12/13 11:37:48;;;;;;;11.23;5.00;;;10.80;99.90;;;;;;5018102;28;20037;-69
2021/12/13 11:40:57;;;;;;;12.43;4.93;;;10.90;99.90;;;;;;5032639;28;20037;-70
2021/12/13 11:44:04;;;;;;;12.88;5.30;;;10.90;99.90;;;;;;5035417;28;20048;-71
2021/12/13 11:47:18;;;;;;;11.70;4.15;;;10.90;99.90;;;;;;5036993;28;20037;-69
2021/12/13 11:50:04;;;;;;;11.50;4.60;;;10.80;99.90;;;;;;5032724;28;20092;-71
2021/12/13 11:52:42;;;;;;;10.75;3.92;;;10.90;99.90;;;;;;5035936;28;20088;-70
2021/12/13 11:55:38;;;;;;;10.85;4.00;;;10.80;99.90;;;;;;5038565;28;20033;-70
2021/12/13 11:58:23;;;;;;;11.50;4.57;;;10.90;99.90;;;;;;5036669;28;20128;-70
2021/12/13 12:01:11;;;;;;;10.10;3.88;;;10.80;99.90;;;;;;5034019;28;20045;-69
2021/12/13 12:04:12;;;;;;;11.10;3.80;;;10.80;99.90;;;;;;5017606;28;20132;-71
2021/12/13 12:07:00;;;;;;;9.57;4.47;;;10.80;99.90;;;;;;5039370;28;20127;-71
2021/12/13 12:09:47;;;;;;;11.55;4.53;;;10.90;99.90;;;;;;5035444;28;20042;-70
2021/12/13 12:12:27;;;;;;;15.05;4.70;;;10.80;99.90;;;;;;5032873;28;20034;-71
2021/12/13 12:15:00;;;;;;;11.48;4.63;;;10.80;99.90;;;;;;5035588;28;20123;-72
2021/12/13 12:17:26;;;;;;;12.57;4.50;;;10.90;99.90;;;;;;5034074;28;20040;-70
2021/12/13 12:19:53;;;;;;;12.40;4.72;;;10.90;99.90;;;;;;5038521;28;20041;-70
2021/12/13 12:22:21;;;;;;;12.07;4.25;;;10.80;99.90;;;;;;5040168;28;20034;-69
2021/12/13 12:24:53;;;;;;;10.13;4.72;;;10.80;99.90;;;;;;5037291;28;20064;-72
2021/12/13 12:27:23;;;;;;;10.05;4.80;;;10.80;99.90;;;;;;5037519;28;20053;-69
2021/12/13 12:30:03;;;;;;;10.82;3.88;;;10.80;99.90;;;;;;5038110;28;20115;-68
2021/12/13 12:32:34;;;;;;;11.30;4.03;;;10.80;99.90;;;;;;5039017;28;20026;-69
2021/12/13 12:35:06;;;;;;;11.80;4.28;;;10.80;99.90;;;;;;5037758;28;20337;-69
2021/12/13 12:38:00;;;;;;;10.80;4.05;;;10.90;99.90;;;;;;5040190;28;20033;-68
2021/12/13 12:40:35;;;;;;;12.48;4.50;;;10.80;99.90;;;;;;5041120;28;20037;-71
2021/12/13 12:43:09;;;;;;;11.05;4.68;;;10.80;99.90;;;;;;5038679;28;20037;-70
2021/12/13 12:45:44;;;;;;;9.43;4.15;;;10.90;99.90;;;;;;5042028;28;20557;-70
2021/12/13 12:48:34;;;;;;;10.50;4.07;;;10.80;99.90;;;;;;5031956;28;20374;-69
2021/12/13 12:51:08;;;;;;;9.27;3.97;;;10.90;99.90;;;;;;5039934;28;20038;-70
2021/12/13 12:53:40;;;;;;;9.75;4.10;;;10.90;99.90;;;;;;5040751;28;20044;-70
2021/12/13 12:56:27;;;;;;;12.93;4.38;;;10.90;99.90;;;;;;5042241;28;20037;-71
2021/12/13 12:58:54;;;;;;;8.43;3.40;;;10.90;99.90;;;;;;5039305;28;20064;-71
2021/12/13 13:01:47;;;;;;;9.77;3.88;;;10.90;99.90;;;;;;5041371;28;20055;-70
2021/12/13 13:04:41;;;;;;;13.35;4.15;;;10.90;99.90;;;;;;5037228;28;20554;-71
2021/12/13 13:07:31;;;;;;;8.77;3.90;;;10.90;99.90;;;;;;5033910;28;20033;-71
2021/12/13 13:10:03;;;;;;;8.73;4.05;;;11.00;99.90;;;;;;5038262;28;20396;-71
2021/12/13 13:12:29;;;;;;;9.30;4.10;;;10.90;99.90;;;;;;5040408;28;20064;-71
2021/12/13 13:15:16;;;;;;;9.75;3.85;;;10.90;99.90;;;;;;5043346;28;20072;-71
2021/12/13 13:17:51;;;;;;;9.68;3.83;;;10.90;99.90;;;;;;5028633;28;20112;-70
2021/12/13 13:20:45;;;;;;;11.05;4.20;;;10.90;99.90;;;;;;5041083;28;20036;-70
2021/12/13 13:23:12;;;;;;;10.82;4.32;;;10.90;99.90;;;;;;5035176;28;20040;-71
2021/12/13 13:25:50;;;;;;;8.88;3.20;;;10.90;99.90;;;;;;5039519;28;20043;-69
2021/12/13 13:28:35;;;;;;;10.07;4.10;;;10.90;99.90;;;;;;5037241;28;20456;-71
2021/12/13 13:31:24;;;;;;;9.15;4.00;;;10.90;99.90;;;;;;5042033;28;20037;-70
2021/12/13 13:33:54;;;;;;;9.32;3.80;;;10.80;99.90;;;;;;5019049;28;20038;-70
2021/12/13 13:36:35;;;;;;;11.68;3.83;;;10.80;99.90;;;;;;5040036;28;20112;-71
2021/12/13 13:39:25;;;;;;;11.75;3.63;;;10.80;99.90;;;;;;5042328;28;20041;-68
2021/12/13 13:42:03;;;;;;;11.18;3.88;;;10.70;99.90;;;;;;5038981;28;20053;-70